sensor_id;sensor_type;location;lat;lon;timestamp;temperature;humidity
65146;DHT22;51730;56.950;24.126;2023-04-01T00:01:15;5.30;99.90
65146;DHT22;51730;56.950;24.126;2023-04-01T00:03:43;5.20;99.90
65146;DHT22;51730;56.950;24.126;2023-04-01T00:06:14;5.20;99.90
65146;DHT22;51730;56.950;24.126;2023-04-01T00:08:41;5.10;99.90
65146;DHT22;51730;56.950;24.126;2023-04-01T00:11:08;5.10;99.90
65146;DHT22;51730;56.950;24.126;2023-04-01T00:13:35;5.10;99.90
65146;DHT22;51730;56.950;24.126;2023-04-01T00:16:02;5.10;99.90
65146;DHT22;51730;56.950;24.126;2023-04-01T00:18:45;5.10;99.90
65146;DHT22;51730;56.950;24.126;2023-04-01T00:21:14;5.00;99.90
65146;DHT22;51730;56.950;24.126;2023-04-01T00:23:41;5.00;99.90
65146;DHT22;51730;56.950;24.126;2023-04-01T00:26:08;5.10;99.90
65146;DHT22;51730;56.950;24.126;2023-04-01T00:28:35;5.20;99.90
65146;DHT22;51730;56.950;24.126;2023-04-01T00:31:06;5.10;99.90
65146;DHT22;51730;56.950;24.126;2023-04-01T00:33:33;5.20;99.90
65146;DHT22;51730;56.950;24.126;2023-04-01T00:36:13;5.10;99.90
65146;DHT22;51730;56.950;24.126;2023-04-01T00:38:40;5.10;99.90
65146;DHT22;51730;56.950;24.126;2023-04-01T00:41:09;5.00;99.90
65146;DHT22;51730;56.950;24.126;2023-04-01T00:43:41;5.00;99.90
65146;DHT22;51730;56.950;24.126;2023-04-01T00:46:08;5.00;99.90
65146;DHT22;51730;56.950;24.126;2023-04-01T00:48:38;5.10;99.90
65146;DHT22;51730;56.950;24.126;2023-04-01T00:51:07;5.10;99.90
65146;DHT22;51730;56.950;24.126;2023-04-01T00:53:35;5.10;99.90
65146;DHT22;51730;56.950;24.126;2023-04-01T00:56:04;5.20;99.90
65146;DHT22;51730;56.950;24.126;2023-04-01T00:58:32;5.00;99.90
65146;DHT22;51730;56.950;24.126;2023-04-01T01:01:01;5.00;99.90
65146;DHT22;51730;56.950;24.126;2023-04-01T01:03:28;5.00;99.90
65146;DHT22;51730;56.950;24.126;2023-04-01T01:09:11;4.90;99.90
65146;DHT22;51730;56.950;24.126;2023-04-01T01:11:09;4.90;99.90
65146;DHT22;51730;56.950;24.126;2023-04-01T01:13:54;4.90;99.90
65146;DHT22;51730;56.950;24.126;2023-04-01T01:16:25;4.90;99.90
65146;DHT22;51730;56.950;24.126;2023-04-01T01:18:57;4.90;99.90
65146;DHT22;51730;56.950;24.126;2023-04-01T01:31:24;4.50;99.90
65146;DHT22;51730;56.950;24.126;2023-04-01T01:34:02;4.50;99.90
65146;DHT22;51730;56.950;24.126;2023-04-01T01:36:33;4.50;99.90
65146;DHT22;51730;56.950;24.126;2023-04-01T01:39:04;4.30;99.90
65146;DHT22;51730;56.950;24.126;2023-04-01T01:41:32;4.20;99.90
65146;DHT22;51730;56.950;24.126;2023-04-01T01:44:00;4.40;99.90
65146;DHT22;51730;56.950;24.126;2023-04-01T01:46:28;4.50;99.90
65146;DHT22;51730;56.950;24.126;2023-04-01T01:48:57;4.60;99.90
65146;DHT22;51730;56.950;24.126;2023-04-01T01:51:26;4.40;99.90
65146;DHT22;51730;56.950;24.126;2023-04-01T01:53:54;4.50;99.90
65146;DHT22;51730;56.950;24.126;2023-04-01T01:56:21;4.40;99.90
65146;DHT22;51730;56.950;24.126;2023-04-01T01:58:51;4.40;99.90
65146;DHT22;51730;56.950;24.126;2023-04-01T02:01:20;4.40;99.90
65146;DHT22;51730;56.950;24.126;2023-04-01T02:03:49;4.50;99.90
65146;DHT22;51730;56.950;24.126;2023-04-01T02:06:18;4.30;99.90
65146;DHT22;51730;56.950;24.126;2023-04-01T02:08:50;4.20;99.90
65146;DHT22;51730;56.950;24.126;2023-04-01T02:11:21;4.30;99.90
65146;DHT22;51730;56.950;24.126;2023-04-01T02:13:53;4.20;99.90
65146;DHT22;51730;56.950;24.126;2023-04-01T02:16:34;4.30;99.90
65146;DHT22;51730;56.950;24.126;2023-04-01T02:19:03;4.40;99.90
65146;DHT22;51730;56.950;24.126;2023-04-01T02:21:33;4.30;99.90
65146;DHT22;51730;56.950;24.126;2023-04-01T02:24:03;4.30;99.90
65146;DHT22;51730;56.950;24.126;2023-04-01T02:26:32;4.40;99.90
65146;DHT22;51730;56.950;24.126;2023-04-01T02:28:58;4.40;99.90
65146;DHT22;51730;56.950;24.126;2023-04-01T02:31:26;4.40;99.90
65146;DHT22;51730;56.950;24.126;2023-04-01T02:33:54;4.40;99.90
65146;DHT22;51730;56.950;24.126;2023-04-01T02:36:21;4.30;99.90
65146;DHT22;51730;56.950;24.126;2023-04-01T02:38:48;4.30;99.90
65146;DHT22;51730;56.950;24.126;2023-04-01T02:41:16;4.20;99.90
65146;DHT22;51730;56.950;24.126;2023-04-01T02:43:43;4.10;99.90
65146;DHT22;51730;56.950;24.126;2023-04-01T02:46:09;4.20;99.90
65146;DHT22;51730;56.950;24.126;2023-04-01T02:48:36;4.30;99.90
65146;DHT22;51730;56.950;24.126;2023-04-01T02:51:03;4.10;99.90
65146;DHT22;51730;56.950;24.126;2023-04-01T02:53:30;4.00;99.90
65146;DHT22;51730;56.950;24.126;2023-04-01T02:55:57;4.00;99.90
65146;DHT22;51730;56.950;24.126;2023-04-01T02:58:24;4.10;99.90
65146;DHT22;51730;56.950;24.126;2023-04-01T03:00:51;3.90;99.90
65146;DHT22;51730;56.950;24.126;2023-04-01T03:03:18;3.90;99.90
65146;DHT22;51730;56.950;24.126;2023-04-01T03:05:44;3.90;99.90
65146;DHT22;51730;56.950;24.126;2023-04-01T03:08:11;3.80;99.90
65146;DHT22;51730;56.950;24.126;2023-04-01T03:10:38;3.90;99.90
65146;DHT22;51730;56.950;24.126;2023-04-01T03:13:05;4.00;99.90
65146;DHT22;51730;56.950;24.126;2023-04-01T03:15:32;3.90;99.90
65146;DHT22;51730;56.950;24.126;2023-04-01T03:17:59;3.90;99.90
65146;DHT22;51730;56.950;24.126;2023-04-01T03:20:26;4.00;99.90
65146;DHT22;51730;56.950;24.126;2023-04-01T03:22:53;4.10;99.90
65146;DHT22;51730;56.950;24.126;2023-04-01T03:25:20;4.10;99.90
65146;DHT22;51730;56.950;24.126;2023-04-01T03:27:47;4.00;99.90
65146;DHT22;51730;56.950;24.126;2023-04-01T03:30:13;3.80;99.90
65146;DHT22;51730;56.950;24.126;2023-04-01T03:32:40;3.80;99.90
65146;DHT22;51730;56.950;24.126;2023-04-01T03:35:07;3.80;99.90
65146;DHT22;51730;56.950;24.126;2023-04-01T03:37:36;3.90;99.90
65146;DHT22;51730;56.950;24.126;2023-04-01T03:40:03;3.90;99.90
65146;DHT22;51730;56.950;24.126;2023-04-01T03:42:30;4.00;99.90
65146;DHT22;51730;56.950;24.126;2023-04-01T03:44:58;4.10;99.90
65146;DHT22;51730;56.950;24.126;2023-04-01T03:47:24;4.00;99.90
65146;DHT22;51730;56.950;24.126;2023-04-01T03:49:51;4.00;99.90
65146;DHT22;51730;56.950;24.126;2023-04-01T03:52:18;4.00;99.90
65146;DHT22;51730;56.950;24.126;2023-04-01T03:54:45;3.90;99.90
65146;DHT22;51730;56.950;24.126;2023-04-01T03:57:11;4.00;99.90
65146;DHT22;51730;56.950;24.126;2023-04-01T03:59:38;4.00;99.90
65146;DHT22;51730;56.950;24.126;2023-04-01T04:02:05;3.80;99.90
65146;DHT22;51730;56.950;24.126;2023-04-01T04:04:32;3.80;99.90
65146;DHT22;51730;56.950;24.126;2023-04-01T04:06:59;3.90;99.90
65146;DHT22;51730;56.950;24.126;2023-04-01T04:09:25;3.90;99.90
65146;DHT22;51730;56.950;24.126;2023-04-01T04:11:52;3.80;99.90
65146;DHT22;51730;56.950;24.126;2023-04-01T04:14:19;3.80;99.90
65146;DHT22;51730;56.950;24.126;2023-04-01T04:16:47;3.80;99.90
65146;DHT22;51730;56.950;24.126;2023-04-01T04:19:14;3.80;99.90
65146;DHT22;51730;56.950;24.126;2023-04-01T04:21:41;3.90;99.90
65146;DHT22;51730;56.950;24.126;2023-04-01T04:24:08;3.80;99.90
65146;DHT22;51730;56.950;24.126;2023-04-01T04:26:35;3.70;99.90
65146;DHT22;51730;56.950;24.126;2023-04-01T04:29:02;3.70;99.90
65146;DHT22;51730;56.950;24.126;2023-04-01T04:31:29;3.70;99.90
65146;DHT22;51730;56.950;24.126;2023-04-01T04:33:56;3.80;99.90
65146;DHT22;51730;56.950;24.126;2023-04-01T04:36:22;3.70;99.90
65146;DHT22;51730;56.950;24.126;2023-04-01T04:38:49;3.70;99.90
65146;DHT22;51730;56.950;24.126;2023-04-01T04:41:17;3.80;99.90
65146;DHT22;51730;56.950;24.126;2023-04-01T04:43:51;3.90;99.90
65146;DHT22;51730;56.950;24.126;2023-04-01T04:46:18;3.90;99.90
65146;DHT22;51730;56.950;24.126;2023-04-01T04:48:45;3.90;99.90
65146;DHT22;51730;56.950;24.126;2023-04-01T04:51:13;3.80;99.90
65146;DHT22;51730;56.950;24.126;2023-04-01T04:53:41;3.80;99.90
65146;DHT22;51730;56.950;24.126;2023-04-01T04:56:08;3.80;99.90
65146;DHT22;51730;56.950;24.126;2023-04-01T04:58:35;3.90;99.90
65146;DHT22;51730;56.950;24.126;2023-04-01T05:01:09;3.80;99.90
65146;DHT22;51730;56.950;24.126;2023-04-01T05:03:37;3.80;99.90
65146;DHT22;51730;56.950;24.126;2023-04-01T05:06:04;3.90;99.90
65146;DHT22;51730;56.950;24.126;2023-04-01T05:08:31;3.90;99.90
65146;DHT22;51730;56.950;24.126;2023-04-01T05:10:59;3.70;99.90
65146;DHT22;51730;56.950;24.126;2023-04-01T05:13:26;3.70;99.90
65146;DHT22;51730;56.950;24.126;2023-04-01T05:15:54;3.70;99.90
65146;DHT22;51730;56.950;24.126;2023-04-01T05:18:21;3.70;99.90
65146;DHT22;51730;56.950;24.126;2023-04-01T05:20:48;3.70;99.90
65146;DHT22;51730;56.950;24.126;2023-04-01T05:23:16;3.70;99.90
65146;DHT22;51730;56.950;24.126;2023-04-01T05:25:43;3.70;99.90
65146;DHT22;51730;56.950;24.126;2023-04-01T05:28:09;3.80;99.90
65146;DHT22;51730;56.950;24.126;2023-04-01T05:30:36;3.80;99.90
65146;DHT22;51730;56.950;24.126;2023-04-01T05:33:05;3.70;99.90
65146;DHT22;51730;56.950;24.126;2023-04-01T05:35:32;3.80;99.90
65146;DHT22;51730;56.950;24.126;2023-04-01T05:37:59;3.70;99.90
65146;DHT22;51730;56.950;24.126;2023-04-01T05:40:27;3.70;99.90
65146;DHT22;51730;56.950;24.126;2023-04-01T05:42:53;3.80;99.90
65146;DHT22;51730;56.950;24.126;2023-04-01T05:45:20;3.80;99.90
65146;DHT22;51730;56.950;24.126;2023-04-01T05:47:47;3.80;99.90
65146;DHT22;51730;56.950;24.126;2023-04-01T05:50:14;3.80;99.90
65146;DHT22;51730;56.950;24.126;2023-04-01T05:52:41;3.90;99.90
65146;DHT22;51730;56.950;24.126;2023-04-01T05:55:08;3.80;99.90
65146;DHT22;51730;56.950;24.126;2023-04-01T05:57:35;3.70;99.90
65146;DHT22;51730;56.950;24.126;2023-04-01T06:00:02;3.80;99.90
65146;DHT22;51730;56.950;24.126;2023-04-01T06:02:29;3.80;99.90
65146;DHT22;51730;56.950;24.126;2023-04-01T06:05:09;3.80;99.90
65146;DHT22;51730;56.950;24.126;2023-04-01T06:07:37;3.80;99.90
65146;DHT22;51730;56.950;24.126;2023-04-01T06:10:14;3.80;99.90
65146;DHT22;51730;56.950;24.126;2023-04-01T06:13:25;3.80;99.90
65146;DHT22;51730;56.950;24.126;2023-04-01T06:18:20;3.80;99.90
65146;DHT22;51730;56.950;24.126;2023-04-01T06:23:37;3.90;99.90
65146;DHT22;51730;56.950;24.126;2023-04-01T06:46:38;4.00;99.90
65146;DHT22;51730;56.950;24.126;2023-04-01T06:54:16;4.00;99.90
65146;DHT22;51730;56.950;24.126;2023-04-01T06:56:44;4.00;99.90
65146;DHT22;51730;56.950;24.126;2023-04-01T06:59:17;4.10;99.90
65146;DHT22;51730;56.950;24.126;2023-04-01T07:01:46;3.90;99.90
65146;DHT22;51730;56.950;24.126;2023-04-01T07:04:15;4.20;99.90
65146;DHT22;51730;56.950;24.126;2023-04-01T07:06:54;4.30;99.90
65146;DHT22;51730;56.950;24.126;2023-04-01T07:09:24;4.30;99.90
65146;DHT22;51730;56.950;24.126;2023-04-01T07:11:53;4.30;99.90
65146;DHT22;51730;56.950;24.126;2023-04-01T07:16:51;4.50;99.90
65146;DHT22;51730;56.950;24.126;2023-04-01T07:19:28;4.60;99.90
65146;DHT22;51730;56.950;24.126;2023-04-01T07:22:21;4.30;99.90
65146;DHT22;51730;56.950;24.126;2023-04-01T07:24:44;4.30;99.90
65146;DHT22;51730;56.950;24.126;2023-04-01T07:27:13;4.40;99.90
65146;DHT22;51730;56.950;24.126;2023-04-01T07:29:40;4.20;99.90
65146;DHT22;51730;56.950;24.126;2023-04-01T07:37:08;4.10;99.90
65146;DHT22;51730;56.950;24.126;2023-04-01T07:50:34;4.10;99.90
65146;DHT22;51730;56.950;24.126;2023-04-01T07:55:35;4.20;99.90
65146;DHT22;51730;56.950;24.126;2023-04-01T08:03:50;4.20;99.90
65146;DHT22;51730;56.950;24.126;2023-04-01T08:06:18;4.20;99.90
65146;DHT22;51730;56.950;24.126;2023-04-01T08:11:31;4.30;99.90
65146;DHT22;51730;56.950;24.126;2023-04-01T08:14:10;4.40;99.90
65146;DHT22;51730;56.950;24.126;2023-04-01T08:21:49;4.40;99.90
65146;DHT22;51730;56.950;24.126;2023-04-01T08:27:18;4.60;99.90
65146;DHT22;51730;56.950;24.126;2023-04-01T08:32:36;4.40;99.90
65146;DHT22;51730;56.950;24.126;2023-04-01T08:37:49;4.30;99.90
65146;DHT22;51730;56.950;24.126;2023-04-01T08:40:27;4.40;99.90
65146;DHT22;51730;56.950;24.126;2023-04-01T08:43:11;4.30;99.90
65146;DHT22;51730;56.950;24.126;2023-04-01T08:45:53;4.30;99.90
65146;DHT22;51730;56.950;24.126;2023-04-01T08:53:20;4.50;99.90
65146;DHT22;51730;56.950;24.126;2023-04-01T08:56:06;4.60;99.90
65146;DHT22;51730;56.950;24.126;2023-04-01T09:01:25;4.70;99.90
65146;DHT22;51730;56.950;24.126;2023-04-01T09:12:23;4.90;99.90
65146;DHT22;51730;56.950;24.126;2023-04-01T09:27:29;5.20;99.90
65146;DHT22;51730;56.950;24.126;2023-04-01T09:35:22;5.10;99.90
65146;DHT22;51730;56.950;24.126;2023-04-01T09:46:15;4.90;99.90
65146;DHT22;51730;56.950;24.126;2023-04-01T09:50:55;4.80;99.90
65146;DHT22;51730;56.950;24.126;2023-04-01T10:53:35;4.10;99.90
65146;DHT22;51730;56.950;24.126;2023-04-01T11:01:16;4.00;99.90
65146;DHT22;51730;56.950;24.126;2023-04-01T11:11:56;4.40;99.90
65146;DHT22;51730;56.950;24.126;2023-04-01T11:22:24;4.00;99.90
65146;DHT22;51730;56.950;24.126;2023-04-01T11:25:16;3.90;99.90
65146;DHT22;51730;56.950;24.126;2023-04-01T11:27:53;4.00;99.90
65146;DHT22;51730;56.950;24.126;2023-04-01T11:33:19;4.30;99.90
65146;DHT22;51730;56.950;24.126;2023-04-01T11:43:51;4.40;99.90
65146;DHT22;51730;56.950;24.126;2023-04-01T11:51:54;4.30;99.90
65146;DHT22;51730;56.950;24.126;2023-04-01T12:18:26;4.70;99.90
65146;DHT22;51730;56.950;24.126;2023-04-01T12:23:51;4.80;99.90
65146;DHT22;51730;56.950;24.126;2023-04-01T12:26:30;4.80;99.90
65146;DHT22;51730;56.950;24.126;2023-04-01T12:39:35;5.00;99.90
65146;DHT22;51730;56.950;24.126;2023-04-01T12:44:46;4.90;99.90
65146;DHT22;51730;56.950;24.126;2023-04-01T12:55:50;4.80;99.90
65146;DHT22;51730;56.950;24.126;2023-04-01T13:16:38;5.10;99.90
65146;DHT22;51730;56.950;24.126;2023-04-01T13:21:43;5.10;99.90
65146;DHT22;51730;56.950;24.126;2023-04-01T13:26:53;4.90;99.90
65146;DHT22;51730;56.950;24.126;2023-04-01T13:29:26;4.80;99.90
65146;DHT22;51730;56.950;24.126;2023-04-01T13:34:36;4.90;99.90
65146;DHT22;51730;56.950;24.126;2023-04-01T13:42:23;5.10;99.90
65146;DHT22;51730;56.950;24.126;2023-04-01T13:45:02;5.00;99.90
65146;DHT22;51730;56.950;24.126;2023-04-01T13:50:14;5.00;99.90
65146;DHT22;51730;56.950;24.126;2023-04-01T13:58:23;5.20;99.90
65146;DHT22;51730;56.950;24.126;2023-04-01T14:01:03;5.20;99.90
65146;DHT22;51730;56.950;24.126;2023-04-01T14:03:37;5.10;99.90
65146;DHT22;51730;56.950;24.126;2023-04-01T14:16:32;5.10;99.90
65146;DHT22;51730;56.950;24.126;2023-04-01T14:21:47;5.20;99.90
65146;DHT22;51730;56.950;24.126;2023-04-01T14:29:28;5.30;99.90
65146;DHT22;51730;56.950;24.126;2023-04-01T14:34:34;5.30;99.90
65146;DHT22;51730;56.950;24.126;2023-04-01T14:50:05;5.30;99.90
65146;DHT22;51730;56.950;24.126;2023-04-01T14:52:37;5.30;99.90
65146;DHT22;51730;56.950;24.126;2023-04-01T14:55:27;5.30;99.90
65146;DHT22;51730;56.950;24.126;2023-04-01T14:58:13;5.30;99.90
65146;DHT22;51730;56.950;24.126;2023-04-01T15:03:25;5.10;99.90
65146;DHT22;51730;56.950;24.126;2023-04-01T15:21:57;5.00;99.90
65146;DHT22;51730;56.950;24.126;2023-04-01T15:24:26;4.90;99.90
65146;DHT22;51730;56.950;24.126;2023-04-01T15:27:05;5.00;99.90
65146;DHT22;51730;56.950;24.126;2023-04-01T15:32:17;5.10;99.90
65146;DHT22;51730;56.950;24.126;2023-04-01T15:37:22;5.30;99.90
65146;DHT22;51730;56.950;24.126;2023-04-01T15:40:02;5.20;99.90
65146;DHT22;51730;56.950;24.126;2023-04-01T15:47:58;5.30;99.90
65146;DHT22;51730;56.950;24.126;2023-04-01T15:55:44;5.00;99.90
65146;DHT22;51730;56.950;24.126;2023-04-01T16:01:10;4.80;99.90
65146;DHT22;51730;56.950;24.126;2023-04-01T16:03:45;4.70;99.90
65146;DHT22;51730;56.950;24.126;2023-04-01T16:08:57;4.60;99.90
65146;DHT22;51730;56.950;24.126;2023-04-01T16:12:10;4.60;99.90
65146;DHT22;51730;56.950;24.126;2023-04-01T16:14:24;4.40;99.90
65146;DHT22;51730;56.950;24.126;2023-04-01T16:16:59;4.30;99.90
65146;DHT22;51730;56.950;24.126;2023-04-01T16:24:37;4.40;99.90
65146;DHT22;51730;56.950;24.126;2023-04-01T16:27:11;4.30;99.90
65146;DHT22;51730;56.950;24.126;2023-04-01T16:29:53;4.30;99.90
65146;DHT22;51730;56.950;24.126;2023-04-01T16:37:35;4.20;99.90
65146;DHT22;51730;56.950;24.126;2023-04-01T16:43:04;4.00;99.90
65146;DHT22;51730;56.950;24.126;2023-04-01T16:48:06;4.00;99.90
65146;DHT22;51730;56.950;24.126;2023-04-01T16:53:10;3.90;99.90
65146;DHT22;51730;56.950;24.126;2023-04-01T17:01:24;3.90;99.90
65146;DHT22;51730;56.950;24.126;2023-04-01T17:03:53;3.80;99.90
65146;DHT22;51730;56.950;24.126;2023-04-01T17:09:02;3.80;99.90
65146;DHT22;51730;56.950;24.126;2023-04-01T17:24:58;3.70;99.90
65146;DHT22;51730;56.950;24.126;2023-04-01T17:27:40;3.70;99.90
65146;DHT22;51730;56.950;24.126;2023-04-01T17:37:40;3.60;99.90
65146;DHT22;51730;56.950;24.126;2023-04-01T17:43:02;3.80;99.90
65146;DHT22;51730;56.950;24.126;2023-04-01T17:51:02;3.60;99.90
65146;DHT22;51730;56.950;24.126;2023-04-01T17:53:36;3.60;99.90
65146;DHT22;51730;56.950;24.126;2023-04-01T17:59:02;3.60;99.90
65146;DHT22;51730;56.950;24.126;2023-04-01T18:09:13;3.60;99.90
65146;DHT22;51730;56.950;24.126;2023-04-01T18:14:44;3.50;99.90
65146;DHT22;51730;56.950;24.126;2023-04-01T18:22:24;3.30;99.90
65146;DHT22;51730;56.950;24.126;2023-04-01T18:25:05;3.40;99.90
65146;DHT22;51730;56.950;24.126;2023-04-01T18:27:38;3.30;99.90
65146;DHT22;51730;56.950;24.126;2023-04-01T18:30:13;3.20;99.90
65146;DHT22;51730;56.950;24.126;2023-04-01T18:32:49;3.20;99.90
65146;DHT22;51730;56.950;24.126;2023-04-01T18:35:19;3.20;99.90
65146;DHT22;51730;56.950;24.126;2023-04-01T18:37:53;3.30;99.90
65146;DHT22;51730;56.950;24.126;2023-04-01T18:45:35;3.50;99.90
65146;DHT22;51730;56.950;24.126;2023-04-01T18:50:43;3.50;99.90
65146;DHT22;51730;56.950;24.126;2023-04-01T18:53:25;3.40;99.90
65146;DHT22;51730;56.950;24.126;2023-04-01T18:55:57;3.40;99.90
65146;DHT22;51730;56.950;24.126;2023-04-01T18:58:35;3.50;99.90
65146;DHT22;51730;56.950;24.126;2023-04-01T19:01:12;3.50;99.90
65146;DHT22;51730;56.950;24.126;2023-04-01T19:06:17;3.50;99.90
65146;DHT22;51730;56.950;24.126;2023-04-01T19:08:45;3.30;99.90
65146;DHT22;51730;56.950;24.126;2023-04-01T19:11:16;3.40;99.90
65146;DHT22;51730;56.950;24.126;2023-04-01T19:26:24;3.40;99.90
65146;DHT22;51730;56.950;24.126;2023-04-01T19:36:56;3.20;99.90
65146;DHT22;51730;56.950;24.126;2023-04-01T19:40:07;3.30;99.90
65146;DHT22;51730;56.950;24.126;2023-04-01T19:42:24;3.30;99.90
65146;DHT22;51730;56.950;24.126;2023-04-01T19:44:56;3.30;99.90
65146;DHT22;51730;56.950;24.126;2023-04-01T19:52:40;3.30;99.90
65146;DHT22;51730;56.950;24.126;2023-04-01T19:57:54;3.30;99.90
65146;DHT22;51730;56.950;24.126;2023-04-01T20:00:40;3.20;99.90
65146;DHT22;51730;56.950;24.126;2023-04-01T20:10:43;3.10;99.90
65146;DHT22;51730;56.950;24.126;2023-04-01T20:13:25;3.00;99.90
65146;DHT22;51730;56.950;24.126;2023-04-01T20:16:02;3.10;99.90
65146;DHT22;51730;56.950;24.126;2023-04-01T20:18:52;3.20;99.90
65146;DHT22;51730;56.950;24.126;2023-04-01T20:21:35;3.30;99.90
65146;DHT22;51730;56.950;24.126;2023-04-01T20:24:23;3.30;99.90
65146;DHT22;51730;56.950;24.126;2023-04-01T20:27:03;3.20;99.90
65146;DHT22;51730;56.950;24.126;2023-04-01T20:37:32;3.20;99.90
65146;DHT22;51730;56.950;24.126;2023-04-01T20:40:37;3.20;99.90
65146;DHT22;51730;56.950;24.126;2023-04-01T20:50:34;3.20;99.90
65146;DHT22;51730;56.950;24.126;2023-04-01T20:56:06;3.10;99.90
65146;DHT22;51730;56.950;24.126;2023-04-01T21:06:31;2.90;99.90
65146;DHT22;51730;56.950;24.126;2023-04-01T21:09:02;2.90;99.90
65146;DHT22;51730;56.950;24.126;2023-04-01T21:11:53;3.00;99.90
65146;DHT22;51730;56.950;24.126;2023-04-01T21:15:25;3.00;99.90
65146;DHT22;51730;56.950;24.126;2023-04-01T21:22:36;3.00;99.90
65146;DHT22;51730;56.950;24.126;2023-04-01T21:49:19;3.10;99.90
65146;DHT22;51730;56.950;24.126;2023-04-01T21:53:56;3.00;99.90
65146;DHT22;51730;56.950;24.126;2023-04-01T22:01:53;3.00;99.90
65146;DHT22;51730;56.950;24.126;2023-04-01T22:07:03;3.20;99.90
65146;DHT22;51730;56.950;24.126;2023-04-01T22:09:35;3.20;99.90
65146;DHT22;51730;56.950;24.126;2023-04-01T22:12:13;3.10;99.90
65146;DHT22;51730;56.950;24.126;2023-04-01T22:22:15;3.00;99.90
65146;DHT22;51730;56.950;24.126;2023-04-01T22:27:30;3.00;99.90
65146;DHT22;51730;56.950;24.126;2023-04-01T22:32:47;2.90;99.90
65146;DHT22;51730;56.950;24.126;2023-04-01T22:40:42;2.90;99.90
65146;DHT22;51730;56.950;24.126;2023-04-01T22:43:12;2.90;99.90
65146;DHT22;51730;56.950;24.126;2023-04-01T22:45:52;2.90;99.90
65146;DHT22;51730;56.950;24.126;2023-04-01T22:48:25;2.90;99.90
65146;DHT22;51730;56.950;24.126;2023-04-01T22:50:57;3.00;99.90
65146;DHT22;51730;56.950;24.126;2023-04-01T22:56:03;3.00;99.90
65146;DHT22;51730;56.950;24.126;2023-04-01T22:58:32;3.00;99.90
65146;DHT22;51730;56.950;24.126;2023-04-01T23:01:01;2.90;99.90
65146;DHT22;51730;56.950;24.126;2023-04-01T23:03:32;2.90;99.90
65146;DHT22;51730;56.950;24.126;2023-04-01T23:06:00;2.90;99.90
65146;DHT22;51730;56.950;24.126;2023-04-01T23:11:04;2.90;99.90
65146;DHT22;51730;56.950;24.126;2023-04-01T23:13:34;2.90;99.90
65146;DHT22;51730;56.950;24.126;2023-04-01T23:16:04;2.90;99.90
65146;DHT22;51730;56.950;24.126;2023-04-01T23:18:51;3.00;99.90
65146;DHT22;51730;56.950;24.126;2023-04-01T23:21:23;3.00;99.90
65146;DHT22;51730;56.950;24.126;2023-04-01T23:23:57;3.00;99.90
65146;DHT22;51730;56.950;24.126;2023-04-01T23:26:39;3.00;99.90
65146;DHT22;51730;56.950;24.126;2023-04-01T23:29:17;3.00;99.90
65146;DHT22;51730;56.950;24.126;2023-04-01T23:31:46;3.00;99.90
65146;DHT22;51730;56.950;24.126;2023-04-01T23:36:47;3.10;99.90
65146;DHT22;51730;56.950;24.126;2023-04-01T23:42:02;2.90;99.90
65146;DHT22;51730;56.950;24.126;2023-04-01T23:44:29;2.90;99.90
65146;DHT22;51730;56.950;24.126;2023-04-01T23:46:57;2.90;99.90
65146;DHT22;51730;56.950;24.126;2023-04-01T23:49:28;2.90;99.90
65146;DHT22;51730;56.950;24.126;2023-04-01T23:51:58;2.90;99.90
65146;DHT22;51730;56.950;24.126;2023-04-01T23:54:32;3.00;99.90
65146;DHT22;51730;56.950;24.126;2023-04-01T23:56:59;2.90;99.90
65146;DHT22;51730;56.950;24.126;2023-04-01T23:59:32;2.90;99.90
